createdAt,value
2018-05-17T00:02:19.237Z,22.67
2018-05-17T00:04:46.266Z,21.90
2018-05-17T00:07:12.582Z,22.33
2018-05-17T00:09:38.864Z,22.75
2018-05-17T00:12:05.169Z,18.92
2018-05-17T00:14:31.474Z,17.95
2018-05-17T00:16:57.821Z,21.23
2018-05-17T00:19:24.114Z,20.50
2018-05-17T00:21:50.453Z,23.73
2018-05-17T00:24:16.745Z,21.30
2018-05-17T00:26:43.082Z,19.42
2018-05-17T00:29:09.373Z,19.27
2018-05-17T00:31:35.704Z,22.10
2018-05-17T00:34:01.993Z,22.20
2018-05-17T00:36:28.296Z,21.70
2018-05-17T00:38:54.568Z,21.15
2018-05-17T00:41:21.108Z,24.17
2018-05-17T00:43:47.425Z,22.73
2018-05-17T00:46:13.753Z,28.67
2018-05-17T00:48:40.071Z,23.27
2018-05-17T00:51:06.397Z,23.95
2018-05-17T00:53:32.695Z,21.87
2018-05-17T00:56:00.796Z,23.90
2018-05-17T00:58:27.100Z,25.73
2018-05-17T01:00:54.176Z,25.67
2018-05-17T01:03:20.470Z,26.83
2018-05-17T01:05:48.537Z,25.27
2018-05-17T01:08:15.560Z,27.85
2018-05-17T01:10:41.894Z,27.30
2018-05-17T01:13:08.198Z,26.98
2018-05-17T01:15:34.527Z,29.35
2018-05-17T01:18:00.812Z,27.42
2018-05-17T01:20:27.880Z,31.87
2018-05-17T01:22:54.174Z,19.15
2018-05-17T01:25:20.473Z,19.95
2018-05-17T01:27:46.810Z,23.35
2018-05-17T01:30:13.117Z,18.25
2018-05-17T01:32:39.405Z,21.42
2018-05-17T01:35:06.473Z,16.55
2018-05-17T01:37:45.047Z,16.85
2018-05-17T01:40:11.362Z,22.30
2018-05-17T01:42:37.644Z,19.83
2018-05-17T01:45:04.700Z,19.00
2018-05-17T01:47:31.026Z,19.12
2018-05-17T01:49:57.329Z,20.95
2018-05-17T01:52:23.824Z,16.00
2018-05-17T01:54:50.139Z,20.85
2018-05-17T01:57:16.420Z,22.58
2018-05-17T01:59:42.733Z,24.10
2018-05-17T02:02:09.026Z,23.33
2018-05-17T02:04:35.312Z,21.52
2018-05-17T02:07:01.598Z,21.40
2018-05-17T02:09:27.922Z,21.70
2018-05-17T02:11:54.205Z,24.70
2018-05-17T02:14:20.533Z,19.55
2018-05-17T02:16:46.825Z,22.98
2018-05-17T02:19:13.123Z,22.55
2018-05-17T02:21:39.409Z,28.48
2018-05-17T02:24:05.745Z,27.58
2018-05-17T02:26:32.790Z,25.42
2018-05-17T02:28:59.117Z,27.77
2018-05-17T02:31:25.393Z,32.22
2018-05-17T02:33:51.713Z,29.60
2018-05-17T02:36:18.748Z,28.05
2018-05-17T02:38:45.802Z,25.85
2018-05-17T02:41:12.838Z,28.77
2018-05-17T02:43:39.881Z,30.42
2018-05-17T02:46:06.176Z,34.13
2018-05-17T02:48:32.489Z,32.55
2018-05-17T02:50:58.772Z,31.00
2018-05-17T02:53:25.075Z,31.15
2018-05-17T02:55:51.372Z,24.87
2018-05-17T02:58:17.719Z,31.92
2018-05-17T03:00:44.015Z,27.10
2018-05-17T03:03:10.321Z,24.10
2018-05-17T03:05:37.365Z,27.02
2018-05-17T03:08:03.694Z,22.85
2018-05-17T03:10:29.981Z,22.87
2018-05-17T03:12:56.289Z,23.75
2018-05-17T03:15:22.593Z,21.50
2018-05-17T03:17:49.661Z,24.92
2018-05-17T03:20:16.684Z,22.27
2018-05-17T03:22:42.981Z,26.15
2018-05-17T03:25:09.405Z,27.08
2018-05-17T03:27:35.704Z,21.25
2018-05-17T03:30:02.022Z,23.25
2018-05-17T03:32:29.065Z,24.55
2018-05-17T03:34:56.099Z,22.23
2018-05-17T03:37:22.414Z,21.85
2018-05-17T03:39:48.728Z,18.62
2018-05-17T03:42:15.053Z,21.30
2018-05-17T03:44:41.336Z,23.40
2018-05-17T03:47:08.400Z,18.27
2018-05-17T03:49:34.693Z,21.17
2018-05-17T03:52:01.009Z,19.35
2018-05-17T03:54:27.333Z,16.70
2018-05-17T03:56:53.621Z,19.02
2018-05-17T03:59:19.916Z,18.45
2018-05-17T04:01:58.518Z,20.98
2018-05-17T04:04:37.133Z,17.42
2018-05-17T04:07:03.412Z,19.90
2018-05-17T04:09:29.718Z,17.30
2018-05-17T04:11:55.996Z,16.00
2018-05-17T04:14:22.321Z,16.37
2018-05-17T04:16:48.601Z,16.50
2018-05-17T04:19:14.910Z,17.12
2018-05-17T04:21:41.220Z,15.30
2018-05-17T04:24:07.520Z,12.07
2018-05-17T04:26:33.808Z,15.73
2018-05-17T04:29:00.125Z,14.70
2018-05-17T04:31:26.408Z,15.02
2018-05-17T04:33:53.717Z,18.40
2018-05-17T04:36:19.996Z,21.08
2018-05-17T04:38:46.291Z,16.90
2018-05-17T04:41:12.572Z,17.02
2018-05-17T04:43:38.885Z,14.63
2018-05-17T04:46:05.173Z,13.25
2018-05-17T04:48:31.480Z,14.38
2018-05-17T04:50:57.761Z,12.82
2018-05-17T04:53:24.804Z,12.05
2018-05-17T04:55:51.843Z,15.07
2018-05-17T04:58:18.884Z,10.43
2018-05-17T05:00:46.211Z,11.25
2018-05-17T05:03:12.518Z,11.63
2018-05-17T05:05:38.811Z,10.68
2018-05-17T05:08:05.848Z,8.43
2018-05-17T05:10:32.124Z,9.50
2018-05-17T05:12:58.473Z,6.47
2018-05-17T05:15:24.760Z,6.20
2018-05-17T05:17:51.796Z,9.98
2018-05-17T05:20:18.832Z,7.22
2018-05-17T05:22:45.133Z,5.20
2018-05-17T05:25:11.420Z,5.12
2018-05-17T05:27:37.721Z,7.65
2018-05-17T05:30:05.487Z,6.10
2018-05-17T05:32:31.793Z,5.18
2018-05-17T05:34:58.073Z,3.78
2018-05-17T05:37:25.380Z,4.72
2018-05-17T05:39:51.665Z,4.72
2018-05-17T05:42:17.973Z,3.58
2018-05-17T05:44:45.026Z,3.20
2018-05-17T05:47:12.054Z,3.45
2018-05-17T05:49:38.453Z,4.10
2018-05-17T05:52:04.692Z,4.70
2018-05-17T05:54:30.977Z,5.10
2018-05-17T05:56:57.277Z,3.30
2018-05-17T05:59:23.590Z,3.60
2018-05-17T06:01:49.905Z,3.70
2018-05-17T06:04:16.176Z,4.10
2018-05-17T06:06:43.204Z,3.62
2018-05-17T06:09:09.508Z,3.00
2018-05-17T06:11:35.800Z,3.97
2018-05-17T06:14:02.110Z,3.30
2018-05-17T06:16:29.140Z,3.37
2018-05-17T06:18:55.453Z,3.00
2018-05-17T06:21:21.748Z,7.00
2018-05-17T06:23:49.090Z,3.70
2018-05-17T06:26:16.136Z,3.00
2018-05-17T06:28:43.140Z,4.60
2018-05-17T06:31:09.413Z,3.58
2018-05-17T06:33:36.496Z,3.50
2018-05-17T06:36:02.802Z,4.00
2018-05-17T06:38:29.092Z,3.30
2018-05-17T06:40:55.393Z,3.70
2018-05-17T06:43:21.681Z,3.90
2018-05-17T06:45:48.744Z,2.87
2018-05-17T06:48:15.040Z,3.50
2018-05-17T06:50:41.324Z,3.40
2018-05-17T06:53:07.629Z,2.77
2018-05-17T06:55:33.948Z,2.33
2018-05-17T06:58:00.970Z,2.80
2018-05-17T07:00:27.307Z,3.10
2018-05-17T07:02:53.583Z,2.87
2018-05-17T07:05:19.891Z,3.00
2018-05-17T07:07:46.193Z,3.03
2018-05-17T07:10:12.503Z,3.10
2018-05-17T07:12:38.791Z,3.30
2018-05-17T07:15:05.102Z,2.80
2018-05-17T07:17:32.122Z,2.90
2018-05-17T07:19:58.416Z,3.10
2018-05-17T07:22:24.697Z,3.70
2018-05-17T07:24:52.785Z,3.23
2018-05-17T07:27:19.065Z,3.13
2018-05-17T07:29:45.458Z,2.77
2018-05-17T07:32:11.683Z,2.50
2018-05-17T07:34:37.990Z,3.20
2018-05-17T07:37:05.025Z,3.00
2018-05-17T07:39:31.326Z,3.47
2018-05-17T07:41:57.612Z,3.00
2018-05-17T07:44:23.956Z,2.93
2018-05-17T07:46:50.336Z,3.30
2018-05-17T07:49:17.296Z,3.30
2018-05-17T07:51:43.575Z,3.57
2018-05-17T07:54:09.861Z,2.70
2018-05-17T07:56:36.873Z,3.00
2018-05-17T07:59:03.201Z,2.70
2018-05-17T08:01:29.491Z,3.43
2018-05-17T08:03:55.785Z,3.20
2018-05-17T08:06:22.075Z,2.23
2018-05-17T08:08:49.398Z,2.80
2018-05-17T08:11:15.679Z,3.00
2018-05-17T08:13:41.979Z,3.03
2018-05-17T08:16:08.268Z,3.10
2018-05-17T08:18:35.337Z,3.03
2018-05-17T08:21:01.608Z,2.70
2018-05-17T08:23:28.004Z,2.90
2018-05-17T08:25:54.228Z,3.23
2018-05-17T08:28:20.536Z,3.40
2018-05-17T08:30:47.569Z,3.27
2018-05-17T08:33:13.868Z,3.77
2018-05-17T08:35:40.166Z,3.40
2018-05-17T08:38:06.475Z,2.67
2018-05-17T08:40:33.522Z,2.63
2018-05-17T08:43:00.557Z,3.90
2018-05-17T08:45:26.851Z,2.90
2018-05-17T08:47:53.154Z,3.13
2018-05-17T08:50:19.445Z,3.77
2018-05-17T08:52:45.741Z,3.17
2018-05-17T08:55:12.025Z,3.10
2018-05-17T08:57:39.057Z,3.13
2018-05-17T09:00:05.369Z,4.20
2018-05-17T09:02:31.674Z,3.43
2018-05-17T09:04:57.969Z,3.47
2018-05-17T09:07:25.013Z,2.97
2018-05-17T09:09:52.034Z,3.63
2018-05-17T09:12:18.332Z,3.10
2018-05-17T09:14:44.613Z,4.57
2018-05-17T09:17:11.669Z,3.30
2018-05-17T09:19:38.689Z,2.90
2018-05-17T09:22:04.989Z,3.60
2018-05-17T09:24:31.265Z,3.57
2018-05-17T09:26:58.289Z,3.10
2018-05-17T09:29:24.581Z,3.60
2018-05-17T09:31:50.900Z,3.80
2018-05-17T09:34:17.176Z,7.90
2018-05-17T09:36:43.489Z,8.40
2018-05-17T09:39:09.770Z,4.37
2018-05-17T09:41:36.801Z,5.10
2018-05-17T09:44:03.823Z,4.13
2018-05-17T09:46:30.137Z,5.13
2018-05-17T09:48:56.416Z,5.40
2018-05-17T09:51:23.474Z,5.37
2018-05-17T09:53:50.766Z,5.40
2018-05-17T09:56:17.065Z,4.27
2018-05-17T09:58:43.341Z,4.43
2018-05-17T10:01:09.656Z,5.17
2018-05-17T10:03:35.939Z,4.80
2018-05-17T10:06:02.993Z,5.10
2018-05-17T10:08:30.017Z,3.93
2018-05-17T10:10:56.309Z,3.80
2018-05-17T10:13:22.592Z,4.20
2018-05-17T10:15:49.629Z,4.10
2018-05-17T10:18:16.653Z,4.63
2018-05-17T10:20:42.947Z,5.97
2018-05-17T10:23:09.323Z,5.33
2018-05-17T10:25:35.581Z,4.70
2018-05-17T10:28:01.873Z,6.10
2018-05-17T10:30:28.165Z,4.10
2018-05-17T10:32:54.461Z,4.87
2018-05-17T10:35:22.556Z,5.20
2018-05-17T10:37:48.841Z,4.83
2018-05-17T10:40:15.139Z,4.43
2018-05-17T10:42:41.441Z,4.73
2018-05-17T10:45:07.741Z,4.50
2018-05-17T10:47:34.045Z,4.47
2018-05-17T10:50:00.327Z,4.57
2018-05-17T10:52:26.628Z,5.40
2018-05-17T10:54:53.935Z,5.40
2018-05-17T10:57:20.248Z,6.10
2018-05-17T10:59:47.525Z,5.30
2018-05-17T11:02:14.834Z,4.90
2018-05-17T11:04:42.872Z,6.00
2018-05-17T11:07:09.185Z,5.93
2018-05-17T11:09:36.468Z,5.93
2018-05-17T11:12:02.800Z,5.03
2018-05-17T11:14:29.081Z,6.37
2018-05-17T11:16:56.409Z,5.77
2018-05-17T11:19:23.521Z,5.57
2018-05-17T11:21:49.826Z,6.03
2018-05-17T11:24:16.113Z,5.90
2018-05-17T11:26:43.152Z,6.53
2018-05-17T11:29:10.165Z,5.03
2018-05-17T11:31:36.457Z,5.20
2018-05-17T11:34:02.737Z,5.60
2018-05-17T11:36:29.038Z,5.33
2018-05-17T11:38:55.320Z,5.23
2018-05-17T11:41:22.360Z,5.73
2018-05-17T11:43:49.384Z,4.93
2018-05-17T11:46:15.700Z,5.33
2018-05-17T11:48:41.981Z,4.80
2018-05-17T11:51:09.027Z,5.10
2018-05-17T11:53:36.056Z,5.60
2018-05-17T11:56:03.113Z,5.47
2018-05-17T11:58:30.145Z,4.97
2018-05-17T12:00:56.445Z,4.70
2018-05-17T12:03:22.720Z,4.77
2018-05-17T12:05:49.765Z,3.60
2018-05-17T12:08:16.777Z,4.20
2018-05-17T12:10:43.089Z,3.47
2018-05-17T12:13:09.356Z,3.43
2018-05-17T12:15:35.661Z,3.53
2018-05-17T12:18:01.953Z,3.27
2018-05-17T12:20:28.254Z,3.50
2018-05-17T12:22:55.336Z,3.83
2018-05-17T12:25:21.606Z,3.00
2018-05-17T12:27:48.893Z,9.77
2018-05-17T12:30:15.948Z,5.33
2018-05-17T12:32:42.981Z,3.70
2018-05-17T12:35:11.037Z,3.40
2018-05-17T12:37:37.309Z,4.30
2018-05-17T12:40:03.625Z,3.80
2018-05-17T12:42:30.641Z,4.00
2018-05-17T12:44:56.947Z,5.33
2018-05-17T12:47:23.365Z,4.00
2018-05-17T12:49:49.664Z,5.43
2018-05-17T12:52:16.690Z,5.00
2018-05-17T12:54:43.729Z,5.63
2018-05-17T12:57:10.002Z,4.60
2018-05-17T12:59:36.297Z,5.50
2018-05-17T13:02:02.587Z,5.10
2018-05-17T13:04:28.888Z,5.30
2018-05-17T13:06:55.259Z,4.77
2018-05-17T13:09:21.518Z,5.77
2018-05-17T13:11:47.801Z,5.73
2018-05-17T13:14:14.117Z,5.20
2018-05-17T13:16:40.401Z,7.83
2018-05-17T13:19:06.696Z,5.40
2018-05-17T13:21:32.984Z,4.90
2018-05-17T13:24:00.021Z,4.87
2018-05-17T13:26:27.046Z,5.43
2018-05-17T13:28:53.353Z,4.23
2018-05-17T13:31:19.621Z,4.20
2018-05-17T13:33:46.665Z,8.10
2018-05-17T13:36:12.948Z,5.57
2018-05-17T13:38:39.250Z,4.13
2018-05-17T13:41:05.528Z,4.60
2018-05-17T13:43:31.853Z,4.40
2018-05-17T13:45:58.139Z,4.70
2018-05-17T13:48:24.442Z,5.00
2018-05-17T13:50:50.732Z,4.70
2018-05-17T13:53:17.041Z,5.00
2018-05-17T13:55:43.328Z,4.93
2018-05-17T13:58:09.620Z,5.27
2018-05-17T14:00:35.920Z,4.87
2018-05-17T14:03:02.220Z,5.97
2018-05-17T14:05:28.504Z,6.17
2018-05-17T14:07:54.817Z,7.30
2018-05-17T14:10:21.088Z,2.80
2018-05-17T14:12:47.376Z,2.17
2018-05-17T14:15:13.706Z,2.27
2018-05-17T14:17:40.725Z,2.20
2018-05-17T14:20:07.745Z,2.90
2018-05-17T14:22:34.056Z,6.73
2018-05-17T14:25:00.345Z,2.47
2018-05-17T14:27:27.381Z,4.70
2018-05-17T14:29:53.681Z,2.90
2018-05-17T14:32:19.990Z,5.40
2018-05-17T14:34:46.261Z,4.10
2018-05-17T14:37:12.576Z,3.23
2018-05-17T14:39:38.860Z,3.70
2018-05-17T14:42:05.181Z,3.67
2018-05-17T14:44:31.462Z,3.50
2018-05-17T14:46:58.772Z,3.67
2018-05-17T14:49:25.058Z,5.00
2018-05-17T14:51:51.357Z,4.40
2018-05-17T14:54:17.645Z,3.60
2018-05-17T14:56:43.972Z,4.20
2018-05-17T14:59:11.001Z,5.47
2018-05-17T15:01:38.113Z,4.10
2018-05-17T15:04:04.405Z,4.77
2018-05-17T15:06:30.734Z,3.77
2018-05-17T15:08:57.016Z,4.50
2018-05-17T15:11:23.382Z,8.50
2018-05-17T15:13:49.733Z,3.70
2018-05-17T15:16:16.737Z,4.17
2018-05-17T15:18:44.029Z,4.27
2018-05-17T15:21:10.337Z,5.57
2018-05-17T15:23:37.361Z,4.20
2018-05-17T15:26:03.664Z,3.70
2018-05-17T15:28:29.953Z,3.90
2018-05-17T15:30:57.957Z,4.47
2018-05-17T15:33:24.287Z,4.67
2018-05-17T15:35:50.623Z,5.03
2018-05-17T15:38:16.903Z,6.13
2018-05-17T15:40:43.945Z,5.10
2018-05-17T15:43:10.225Z,6.67
2018-05-17T15:45:36.527Z,7.93
2018-05-17T15:48:02.828Z,8.77
2018-05-17T15:50:29.141Z,8.63
2018-05-17T15:52:55.424Z,7.90
2018-05-17T15:55:21.721Z,8.77
2018-05-17T15:57:48.002Z,9.97
2018-05-17T16:00:14.305Z,9.50
2018-05-17T16:02:40.601Z,9.50
2018-05-17T16:05:06.922Z,10.80
2018-05-17T16:07:33.224Z,11.80
2018-05-17T16:09:59.566Z,9.40
2018-05-17T16:12:25.865Z,9.10
2018-05-17T16:14:52.211Z,7.13
2018-05-17T16:17:18.480Z,7.53
2018-05-17T16:19:44.756Z,7.00
2018-05-17T16:22:11.049Z,7.93
2018-05-17T16:24:37.336Z,5.90
2018-05-17T16:27:03.648Z,8.17
2018-05-17T16:29:29.933Z,7.30
2018-05-17T16:31:56.227Z,7.33
2018-05-17T16:34:22.506Z,7.30
2018-05-17T16:36:48.820Z,8.60
2018-05-17T16:39:16.594Z,7.77
2018-05-17T16:41:42.893Z,7.60
2018-05-17T16:44:09.188Z,8.57
2018-05-17T16:46:35.476Z,11.93
2018-05-17T16:49:01.758Z,12.87
2018-05-17T16:51:28.045Z,43.20
2018-05-17T16:53:54.317Z,11.20
2018-05-17T16:56:21.668Z,10.60
2018-05-17T16:58:48.058Z,9.43
2018-05-17T17:01:14.289Z,10.27
2018-05-17T17:03:40.560Z,8.57
2018-05-17T17:06:06.871Z,10.63
2018-05-17T17:08:33.914Z,10.83
2018-05-17T17:11:00.944Z,10.50
2018-05-17T17:13:27.217Z,10.80
2018-05-17T17:15:53.526Z,12.23
2018-05-17T17:18:19.821Z,11.27
2018-05-17T17:20:46.120Z,11.93
2018-05-17T17:23:12.401Z,10.67
2018-05-17T17:25:39.432Z,9.20
2018-05-17T17:28:05.725Z,7.83
2018-05-17T17:30:33.073Z,8.43
2018-05-17T17:32:59.348Z,7.87
2018-05-17T17:35:25.648Z,18.20
2018-05-17T17:37:51.934Z,18.73
2018-05-17T17:40:19.033Z,15.23
2018-05-17T17:42:45.320Z,11.30
2018-05-17T17:45:12.349Z,12.93
2018-05-17T17:47:38.656Z,9.23
2018-05-17T17:50:04.969Z,9.73
2018-05-17T17:52:31.253Z,9.43
2018-05-17T17:54:58.305Z,10.70
2018-05-17T17:57:24.589Z,10.37
2018-05-17T17:59:50.893Z,10.53
2018-05-17T18:02:17.176Z,10.10
2018-05-17T18:04:44.225Z,12.10
2018-05-17T18:07:11.249Z,10.20
2018-05-17T18:09:37.656Z,10.20
2018-05-17T18:12:03.959Z,11.23
2018-05-17T18:14:30.265Z,11.90
2018-05-17T18:16:57.285Z,11.13
2018-05-17T18:19:25.290Z,13.50
2018-05-17T18:22:00.313Z,12.20
2018-05-17T18:24:27.372Z,11.33
2018-05-17T18:26:54.395Z,11.20
2018-05-17T18:29:20.696Z,12.77
2018-05-17T18:31:46.992Z,16.50
2018-05-17T18:34:13.304Z,14.57
2018-05-17T18:36:39.641Z,14.73
2018-05-17T18:39:05.984Z,13.70
2018-05-17T18:41:32.279Z,14.83
2018-05-17T18:43:59.348Z,16.10
2018-05-17T18:46:25.635Z,17.57
2018-05-17T18:48:51.991Z,21.27
2018-05-17T18:51:18.291Z,22.10
2018-05-17T18:53:44.604Z,22.60
2018-05-17T18:56:10.896Z,28.13
2018-05-17T18:58:37.199Z,28.07
2018-05-17T19:01:03.499Z,24.93
2018-05-17T19:03:29.831Z,22.97
2018-05-17T19:05:56.108Z,22.00
2018-05-17T19:08:23.156Z,14.90
2018-05-17T19:10:49.724Z,16.17
2018-05-17T19:13:16.040Z,14.63
2018-05-17T19:15:43.481Z,14.30
2018-05-17T19:18:09.876Z,13.60
2018-05-17T19:20:36.151Z,18.50
2018-05-17T19:23:03.436Z,15.73
2018-05-17T19:25:29.749Z,16.97
2018-05-17T19:27:56.043Z,15.60
2018-05-17T19:30:23.065Z,22.80
2018-05-17T19:32:49.359Z,22.17
2018-05-17T19:35:15.625Z,42.83
2018-05-17T19:37:43.017Z,42.80
2018-05-17T19:40:09.287Z,39.67
2018-05-17T19:42:35.580Z,50.67
2018-05-17T19:45:01.882Z,51.97
2018-05-17T19:47:28.916Z,51.30
2018-05-17T19:49:55.213Z,61.50
2018-05-17T19:52:21.492Z,58.90
2018-05-17T19:54:49.517Z,59.37
2018-05-17T19:57:15.840Z,61.63
2018-05-17T19:59:42.127Z,60.77
2018-05-17T20:02:09.167Z,52.43
2018-05-17T20:04:36.207Z,61.17
2018-05-17T20:07:03.520Z,56.63
2018-05-17T20:09:29.824Z,59.73
2018-05-17T20:11:56.136Z,64.95
2018-05-17T20:14:23.143Z,64.93
2018-05-17T20:16:49.511Z,56.83
2018-05-17T20:19:16.552Z,64.30
2018-05-17T20:21:43.616Z,54.57
2018-05-17T20:24:09.937Z,62.40
2018-05-17T20:26:36.983Z,63.83
2018-05-17T20:29:04.032Z,69.23
2018-05-17T20:31:30.344Z,64.50
2018-05-17T20:33:57.382Z,67.73
2018-05-17T20:36:23.671Z,66.10
2018-05-17T20:38:50.024Z,69.80
2018-05-17T20:41:16.316Z,68.67
2018-05-17T20:43:42.591Z,71.73
2018-05-17T20:46:08.915Z,68.70
2018-05-17T20:48:35.204Z,74.60
2018-05-17T20:51:01.515Z,74.50
2018-05-17T20:53:28.528Z,98.67
2018-05-17T20:55:54.841Z,71.17
2018-05-17T20:58:21.122Z,87.37
2018-05-17T21:00:47.419Z,64.50
2018-05-17T21:03:13.747Z,98.47
2018-05-17T21:05:40.092Z,72.37
2018-05-17T21:08:07.124Z,83.73
2018-05-17T21:10:33.431Z,73.47
2018-05-17T21:12:59.730Z,78.40
2018-05-17T21:15:26.008Z,84.32
2018-05-17T21:17:52.318Z,76.77
2018-05-17T21:20:18.619Z,77.47
2018-05-17T21:22:44.903Z,67.27
2018-05-17T21:25:11.236Z,76.20
2018-05-17T21:27:37.528Z,75.87
2018-05-17T21:30:03.845Z,77.40
2018-05-17T21:32:30.155Z,72.63
2018-05-17T21:34:56.441Z,69.57
2018-05-17T21:37:22.816Z,67.53
2018-05-17T21:39:49.108Z,76.87
2018-05-17T21:42:15.400Z,66.80
2018-05-17T21:44:41.697Z,86.03
2018-05-17T21:47:08.744Z,71.40
2018-05-17T21:49:35.785Z,71.70
2018-05-17T21:52:02.831Z,80.27
2018-05-17T21:54:29.970Z,75.07
2018-05-17T21:56:56.274Z,78.57
2018-05-17T22:01:51.748Z,83.40
2018-05-17T22:04:18.046Z,71.63
2018-05-17T22:06:44.335Z,78.83
2018-05-17T22:09:10.630Z,74.93
2018-05-17T22:11:37.656Z,77.07
2018-05-17T22:14:03.988Z,77.63
2018-05-17T22:16:30.280Z,79.73
2018-05-17T22:18:56.580Z,84.35
2018-05-17T22:21:22.939Z,87.80
2018-05-17T22:23:49.235Z,76.40
2018-05-17T22:26:15.537Z,89.83
2018-05-17T22:28:43.648Z,70.12
2018-05-17T22:31:09.948Z,83.95
2018-05-17T22:33:37.020Z,87.43
2018-05-17T22:36:03.302Z,80.53
2018-05-17T22:38:29.606Z,81.53
2018-05-17T22:40:55.912Z,89.47
2018-05-17T22:43:22.212Z,84.05
2018-05-17T22:45:49.265Z,79.93
2018-05-17T22:48:15.557Z,90.20
2018-05-17T22:50:41.868Z,83.97
2018-05-17T22:53:08.197Z,82.62
2018-05-17T22:55:34.472Z,72.93
2018-05-17T22:58:13.964Z,74.97
2018-05-17T23:00:40.254Z,79.07
2018-05-17T23:03:08.315Z,81.10
2018-05-17T23:05:35.376Z,91.80
2018-05-17T23:08:01.670Z,76.83
2018-05-17T23:10:27.997Z,86.70
2018-05-17T23:12:54.292Z,77.03
2018-05-17T23:15:20.612Z,79.07
2018-05-17T23:17:46.886Z,87.53
2018-05-17T23:20:13.178Z,74.90
2018-05-17T23:22:39.487Z,90.87
2018-05-17T23:25:07.588Z,92.73
2018-05-17T23:27:33.983Z,89.85
2018-05-17T23:30:01.063Z,82.47
2018-05-17T23:32:27.373Z,92.00
2018-05-17T23:34:53.696Z,86.60
2018-05-17T23:37:20.949Z,84.60
2018-05-17T23:39:47.258Z,79.90
2018-05-17T23:42:14.303Z,71.10
2018-05-17T23:44:41.336Z,84.60
2018-05-17T23:47:07.654Z,84.33
2018-05-17T23:49:33.955Z,82.57
2018-05-17T23:52:00.288Z,91.55
2018-05-17T23:54:26.584Z,78.00
2018-05-17T23:56:53.613Z,88.23
2018-05-17T23:59:19.944Z,79.93
